sensor_id;sensor_type;location;lat;lon;timestamp;temperature;humidity
26641;DHT22;14269;47.358;0.724;2022-11-11T00:01:49;12.0;77.0
26641;DHT22;14269;47.358;0.724;2022-11-11T00:04:20;12.0;76.0
26641;DHT22;14269;47.358;0.724;2022-11-11T00:06:59;12.0;77.0
26641;DHT22;14269;47.358;0.724;2022-11-11T00:09:35;12.0;77.0
26641;DHT22;14269;47.358;0.724;2022-11-11T00:12:16;12.0;77.0
26641;DHT22;14269;47.358;0.724;2022-11-11T00:14:47;12.0;77.0
26641;DHT22;14269;47.358;0.724;2022-11-11T00:25:30;12.0;77.0
26641;DHT22;14269;47.358;0.724;2022-11-11T00:28:06;12.0;77.0
26641;DHT22;14269;47.358;0.724;2022-11-11T00:30:38;11.0;76.0
26641;DHT22;14269;47.358;0.724;2022-11-11T00:33:09;11.0;77.0
26641;DHT22;14269;47.358;0.724;2022-11-11T00:35:57;11.0;77.0
26641;DHT22;14269;47.358;0.724;2022-11-11T00:38:48;11.0;77.0
26641;DHT22;14269;47.358;0.724;2022-11-11T00:41:26;11.0;77.0
26641;DHT22;14269;47.358;0.724;2022-11-11T00:44:11;11.0;77.0
26641;DHT22;14269;47.358;0.724;2022-11-11T00:51:31;11.0;77.0
26641;DHT22;14269;47.358;0.724;2022-11-11T00:54:03;11.0;77.0
26641;DHT22;14269;47.358;0.724;2022-11-11T00:56:35;11.0;77.0
26641;DHT22;14269;47.358;0.724;2022-11-11T00:59:16;11.0;77.0
26641;DHT22;14269;47.358;0.724;2022-11-11T01:01:48;11.0;77.0
26641;DHT22;14269;47.358;0.724;2022-11-11T01:04:21;11.0;77.0
26641;DHT22;14269;47.358;0.724;2022-11-11T01:07:01;11.0;77.0
26641;DHT22;14269;47.358;0.724;2022-11-11T01:09:33;11.0;77.0
26641;DHT22;14269;47.358;0.724;2022-11-11T01:12:06;11.0;78.0
26641;DHT22;14269;47.358;0.724;2022-11-11T01:14:46;11.0;77.0
26641;DHT22;14269;47.358;0.724;2022-11-11T01:17:18;11.0;78.0
26641;DHT22;14269;47.358;0.724;2022-11-11T01:19:50;11.0;77.0
26641;DHT22;14269;47.358;0.724;2022-11-11T01:22:21;11.0;78.0
26641;DHT22;14269;47.358;0.724;2022-11-11T01:24:53;11.0;78.0
26641;DHT22;14269;47.358;0.724;2022-11-11T01:27:25;11.0;78.0
26641;DHT22;14269;47.358;0.724;2022-11-11T01:29:56;11.0;77.0
26641;DHT22;14269;47.358;0.724;2022-11-11T01:32:28;11.0;77.0
26641;DHT22;14269;47.358;0.724;2022-11-11T01:34:59;11.0;77.0
26641;DHT22;14269;47.358;0.724;2022-11-11T01:37:31;11.0;77.0
26641;DHT22;14269;47.358;0.724;2022-11-11T01:40:03;11.0;77.0
26641;DHT22;14269;47.358;0.724;2022-11-11T01:42:45;11.0;78.0
26641;DHT22;14269;47.358;0.724;2022-11-11T01:45:59;11.0;77.0
26641;DHT22;14269;47.358;0.724;2022-11-11T01:49:48;11.0;77.0
26641;DHT22;14269;47.358;0.724;2022-11-11T01:52:31;11.0;77.0
26641;DHT22;14269;47.358;0.724;2022-11-11T01:55:15;11.0;77.0
26641;DHT22;14269;47.358;0.724;2022-11-11T01:57:57;11.0;78.0
26641;DHT22;14269;47.358;0.724;2022-11-11T02:00:36;11.0;78.0
26641;DHT22;14269;47.358;0.724;2022-11-11T02:03:09;11.0;78.0
26641;DHT22;14269;47.358;0.724;2022-11-11T02:05:54;11.0;78.0
26641;DHT22;14269;47.358;0.724;2022-11-11T02:08:34;11.0;78.0
26641;DHT22;14269;47.358;0.724;2022-11-11T02:14:36;11.0;77.0
26641;DHT22;14269;47.358;0.724;2022-11-11T02:17:18;11.0;78.0
26641;DHT22;14269;47.358;0.724;2022-11-11T02:20:01;11.0;78.0
26641;DHT22;14269;47.358;0.724;2022-11-11T02:22:45;11.0;78.0
26641;DHT22;14269;47.358;0.724;2022-11-11T02:25:25;11.0;78.0
26641;DHT22;14269;47.358;0.724;2022-11-11T02:28:06;11.0;78.0
26641;DHT22;14269;47.358;0.724;2022-11-11T02:30:46;11.0;78.0
26641;DHT22;14269;47.358;0.724;2022-11-11T02:33:17;11.0;78.0
26641;DHT22;14269;47.358;0.724;2022-11-11T02:35:55;11.0;77.0
26641;DHT22;14269;47.358;0.724;2022-11-11T02:38:31;11.0;78.0
26641;DHT22;14269;47.358;0.724;2022-11-11T02:42:09;11.0;78.0
26641;DHT22;14269;47.358;0.724;2022-11-11T02:44:45;11.0;77.0
26641;DHT22;14269;47.358;0.724;2022-11-11T02:47:17;11.0;77.0
26641;DHT22;14269;47.358;0.724;2022-11-11T02:49:48;11.0;78.0
26641;DHT22;14269;47.358;0.724;2022-11-11T02:52:20;11.0;78.0
26641;DHT22;14269;47.358;0.724;2022-11-11T02:54:51;11.0;78.0
26641;DHT22;14269;47.358;0.724;2022-11-11T02:57:23;11.0;78.0
26641;DHT22;14269;47.358;0.724;2022-11-11T02:59:57;11.0;78.0
26641;DHT22;14269;47.358;0.724;2022-11-11T03:02:37;11.0;77.0
26641;DHT22;14269;47.358;0.724;2022-11-11T03:05:08;11.0;78.0
26641;DHT22;14269;47.358;0.724;2022-11-11T03:07:40;11.0;78.0
26641;DHT22;14269;47.358;0.724;2022-11-11T03:10:11;11.0;78.0
26641;DHT22;14269;47.358;0.724;2022-11-11T03:12:43;11.0;78.0
26641;DHT22;14269;47.358;0.724;2022-11-11T03:15:15;11.0;78.0
26641;DHT22;14269;47.358;0.724;2022-11-11T03:17:46;11.0;78.0
26641;DHT22;14269;47.358;0.724;2022-11-11T03:21:23;11.0;78.0
26641;DHT22;14269;47.358;0.724;2022-11-11T03:24:01;11.0;78.0
26641;DHT22;14269;47.358;0.724;2022-11-11T03:26:32;11.0;78.0
26641;DHT22;14269;47.358;0.724;2022-11-11T03:29:04;11.0;77.0
26641;DHT22;14269;47.358;0.724;2022-11-11T03:31:36;11.0;78.0
26641;DHT22;14269;47.358;0.724;2022-11-11T03:34:23;11.0;77.0
26641;DHT22;14269;47.358;0.724;2022-11-11T03:39:30;11.0;78.0
26641;DHT22;14269;47.358;0.724;2022-11-11T03:42:02;11.0;79.0
26641;DHT22;14269;47.358;0.724;2022-11-11T03:44:34;11.0;79.0
26641;DHT22;14269;47.358;0.724;2022-11-11T03:47:05;11.0;78.0
26641;DHT22;14269;47.358;0.724;2022-11-11T03:49:37;11.0;78.0
26641;DHT22;14269;47.358;0.724;2022-11-11T03:52:09;11.0;78.0
26641;DHT22;14269;47.358;0.724;2022-11-11T03:54:40;11.0;78.0
26641;DHT22;14269;47.358;0.724;2022-11-11T03:57:45;11.0;78.0
26641;DHT22;14269;47.358;0.724;2022-11-11T04:00:26;11.0;78.0
26641;DHT22;14269;47.358;0.724;2022-11-11T04:10:31;11.0;79.0
26641;DHT22;14269;47.358;0.724;2022-11-11T04:16:29;11.0;78.0
26641;DHT22;14269;47.358;0.724;2022-11-11T04:21:43;11.0;78.0
26641;DHT22;14269;47.358;0.724;2022-11-11T04:26:54;11.0;78.0
26641;DHT22;14269;47.358;0.724;2022-11-11T04:29:33;11.0;78.0
26641;DHT22;14269;47.358;0.724;2022-11-11T04:32:38;11.0;78.0
26641;DHT22;14269;47.358;0.724;2022-11-11T04:35:17;11.0;77.0
26641;DHT22;14269;47.358;0.724;2022-11-11T04:37:49;11.0;77.0
26641;DHT22;14269;47.358;0.724;2022-11-11T04:41:24;11.0;77.0
26641;DHT22;14269;47.358;0.724;2022-11-11T04:46:25;11.0;78.0
26641;DHT22;14269;47.358;0.724;2022-11-11T04:48:57;11.0;78.0
26641;DHT22;14269;47.358;0.724;2022-11-11T04:52:42;11.0;77.0
26641;DHT22;14269;47.358;0.724;2022-11-11T04:57:43;12.0;76.0
26641;DHT22;14269;47.358;0.724;2022-11-11T05:00:16;11.0;76.0
26641;DHT22;14269;47.358;0.724;2022-11-11T05:03:28;11.0;77.0
26641;DHT22;14269;47.358;0.724;2022-11-11T05:09:00;12.0;76.0
26641;DHT22;14269;47.358;0.724;2022-11-11T05:11:40;11.0;76.0
26641;DHT22;14269;47.358;0.724;2022-11-11T05:21:29;12.0;76.0
26641;DHT22;14269;47.358;0.724;2022-11-11T05:26:30;12.0;76.0
26641;DHT22;14269;47.358;0.724;2022-11-11T05:29:02;12.0;76.0
26641;DHT22;14269;47.358;0.724;2022-11-11T05:31:33;12.0;76.0
26641;DHT22;14269;47.358;0.724;2022-11-11T05:34:05;12.0;76.0
26641;DHT22;14269;47.358;0.724;2022-11-11T05:36:37;11.0;76.0
26641;DHT22;14269;47.358;0.724;2022-11-11T05:39:08;11.0;76.0
26641;DHT22;14269;47.358;0.724;2022-11-11T05:41:40;11.0;78.0
26641;DHT22;14269;47.358;0.724;2022-11-11T05:44:12;11.0;78.0
26641;DHT22;14269;47.358;0.724;2022-11-11T05:46:43;11.0;78.0
26641;DHT22;14269;47.358;0.724;2022-11-11T05:49:15;11.0;78.0
26641;DHT22;14269;47.358;0.724;2022-11-11T05:51:47;11.0;78.0
26641;DHT22;14269;47.358;0.724;2022-11-11T05:54:18;11.0;77.0
26641;DHT22;14269;47.358;0.724;2022-11-11T05:56:50;11.0;76.0
26641;DHT22;14269;47.358;0.724;2022-11-11T05:59:21;11.0;77.0
26641;DHT22;14269;47.358;0.724;2022-11-11T06:01:53;11.0;77.0
26641;DHT22;14269;47.358;0.724;2022-11-11T06:04:25;11.0;76.0
26641;DHT22;14269;47.358;0.724;2022-11-11T06:06:56;11.0;77.0
26641;DHT22;14269;47.358;0.724;2022-11-11T06:09:28;11.0;77.0
26641;DHT22;14269;47.358;0.724;2022-11-11T06:12:00;11.0;76.0
26641;DHT22;14269;47.358;0.724;2022-11-11T06:14:31;12.0;76.0
26641;DHT22;14269;47.358;0.724;2022-11-11T06:17:03;11.0;76.0
26641;DHT22;14269;47.358;0.724;2022-11-11T06:19:35;12.0;76.0
26641;DHT22;14269;47.358;0.724;2022-11-11T06:22:06;12.0;76.0
26641;DHT22;14269;47.358;0.724;2022-11-11T06:24:38;12.0;76.0
26641;DHT22;14269;47.358;0.724;2022-11-11T06:27:10;12.0;76.0
26641;DHT22;14269;47.358;0.724;2022-11-11T06:29:41;11.0;76.0
26641;DHT22;14269;47.358;0.724;2022-11-11T06:32:13;11.0;76.0
26641;DHT22;14269;47.358;0.724;2022-11-11T06:34:44;11.0;76.0
26641;DHT22;14269;47.358;0.724;2022-11-11T06:37:16;11.0;76.0
26641;DHT22;14269;47.358;0.724;2022-11-11T06:39:48;11.0;76.0
26641;DHT22;14269;47.358;0.724;2022-11-11T06:42:20;11.0;76.0
26641;DHT22;14269;47.358;0.724;2022-11-11T06:44:51;11.0;76.0
26641;DHT22;14269;47.358;0.724;2022-11-11T06:47:23;11.0;76.0
26641;DHT22;14269;47.358;0.724;2022-11-11T06:49:54;11.0;76.0
26641;DHT22;14269;47.358;0.724;2022-11-11T06:52:26;11.0;76.0
26641;DHT22;14269;47.358;0.724;2022-11-11T06:54:58;11.0;76.0
26641;DHT22;14269;47.358;0.724;2022-11-11T06:57:29;11.0;76.0
26641;DHT22;14269;47.358;0.724;2022-11-11T07:00:02;11.0;76.0
26641;DHT22;14269;47.358;0.724;2022-11-11T07:02:43;11.0;77.0
26641;DHT22;14269;47.358;0.724;2022-11-11T07:05:14;11.0;77.0
26641;DHT22;14269;47.358;0.724;2022-11-11T07:07:46;11.0;76.0
26641;DHT22;14269;47.358;0.724;2022-11-11T07:10:18;11.0;76.0
26641;DHT22;14269;47.358;0.724;2022-11-11T07:12:50;11.0;76.0
26641;DHT22;14269;47.358;0.724;2022-11-11T07:15:21;11.0;78.0
26641;DHT22;14269;47.358;0.724;2022-11-11T07:17:53;11.0;78.0
26641;DHT22;14269;47.358;0.724;2022-11-11T07:20:24;11.0;78.0
26641;DHT22;14269;47.358;0.724;2022-11-11T07:22:56;11.0;77.0
26641;DHT22;14269;47.358;0.724;2022-11-11T07:25:28;11.0;77.0
26641;DHT22;14269;47.358;0.724;2022-11-11T07:27:59;11.0;77.0
26641;DHT22;14269;47.358;0.724;2022-11-11T07:30:31;11.0;76.0
26641;DHT22;14269;47.358;0.724;2022-11-11T07:33:03;11.0;77.0
26641;DHT22;14269;47.358;0.724;2022-11-11T07:35:34;11.0;77.0
26641;DHT22;14269;47.358;0.724;2022-11-11T07:38:06;11.0;77.0
26641;DHT22;14269;47.358;0.724;2022-11-11T07:40:37;11.0;76.0
26641;DHT22;14269;47.358;0.724;2022-11-11T07:43:09;11.0;76.0
26641;DHT22;14269;47.358;0.724;2022-11-11T07:45:42;11.0;77.0
26641;DHT22;14269;47.358;0.724;2022-11-11T07:48:12;11.0;78.0
26641;DHT22;14269;47.358;0.724;2022-11-11T07:50:44;10.0;78.0
26641;DHT22;14269;47.358;0.724;2022-11-11T07:53:16;11.0;78.0
26641;DHT22;14269;47.358;0.724;2022-11-11T07:55:47;11.0;78.0
26641;DHT22;14269;47.358;0.724;2022-11-11T07:58:19;11.0;77.0
26641;DHT22;14269;47.358;0.724;2022-11-11T08:00:51;11.0;78.0
26641;DHT22;14269;47.358;0.724;2022-11-11T08:03:22;11.0;77.0
26641;DHT22;14269;47.358;0.724;2022-11-11T08:05:54;11.0;77.0
26641;DHT22;14269;47.358;0.724;2022-11-11T08:08:26;11.0;78.0
26641;DHT22;14269;47.358;0.724;2022-11-11T08:10:57;11.0;77.0
26641;DHT22;14269;47.358;0.724;2022-11-11T08:13:44;11.0;77.0
26641;DHT22;14269;47.358;0.724;2022-11-11T08:16:21;11.0;77.0
26641;DHT22;14269;47.358;0.724;2022-11-11T08:18:53;11.0;77.0
26641;DHT22;14269;47.358;0.724;2022-11-11T08:21:24;11.0;77.0
26641;DHT22;14269;47.358;0.724;2022-11-11T08:23:56;11.0;76.0
26641;DHT22;14269;47.358;0.724;2022-11-11T08:26:27;11.0;76.0
26641;DHT22;14269;47.358;0.724;2022-11-11T08:28:59;11.0;77.0
26641;DHT22;14269;47.358;0.724;2022-11-11T08:31:31;11.0;77.0
26641;DHT22;14269;47.358;0.724;2022-11-11T08:34:12;11.0;76.0
26641;DHT22;14269;47.358;0.724;2022-11-11T08:36:44;11.0;76.0
26641;DHT22;14269;47.358;0.724;2022-11-11T08:39:16;11.0;76.0
26641;DHT22;14269;47.358;0.724;2022-11-11T08:41:47;11.0;75.0
26641;DHT22;14269;47.358;0.724;2022-11-11T08:44:19;11.0;76.0
26641;DHT22;14269;47.358;0.724;2022-11-11T08:46:51;12.0;75.0
26641;DHT22;14269;47.358;0.724;2022-11-11T08:49:22;11.0;76.0
26641;DHT22;14269;47.358;0.724;2022-11-11T08:51:54;11.0;76.0
26641;DHT22;14269;47.358;0.724;2022-11-11T08:54:25;11.0;76.0
26641;DHT22;14269;47.358;0.724;2022-11-11T08:56:57;11.0;76.0
26641;DHT22;14269;47.358;0.724;2022-11-11T08:59:29;11.0;76.0
26641;DHT22;14269;47.358;0.724;2022-11-11T09:02:00;11.0;76.0
26641;DHT22;14269;47.358;0.724;2022-11-11T09:04:32;11.0;77.0
26641;DHT22;14269;47.358;0.724;2022-11-11T09:07:04;11.0;76.0
26641;DHT22;14269;47.358;0.724;2022-11-11T09:09:35;11.0;76.0
26641;DHT22;14269;47.358;0.724;2022-11-11T09:12:07;11.0;76.0
26641;DHT22;14269;47.358;0.724;2022-11-11T09:14:39;11.0;76.0
26641;DHT22;14269;47.358;0.724;2022-11-11T09:17:11;11.0;76.0
26641;DHT22;14269;47.358;0.724;2022-11-11T09:19:42;11.0;76.0
26641;DHT22;14269;47.358;0.724;2022-11-11T09:22:14;11.0;75.0
26641;DHT22;14269;47.358;0.724;2022-11-11T09:24:46;12.0;76.0
26641;DHT22;14269;47.358;0.724;2022-11-11T09:27:17;12.0;75.0
26641;DHT22;14269;47.358;0.724;2022-11-11T09:29:49;12.0;75.0
26641;DHT22;14269;47.358;0.724;2022-11-11T09:32:20;12.0;75.0
26641;DHT22;14269;47.358;0.724;2022-11-11T09:34:54;12.0;74.0
26641;DHT22;14269;47.358;0.724;2022-11-11T09:37:34;12.0;75.0
26641;DHT22;14269;47.358;0.724;2022-11-11T09:40:08;12.0;74.0
26641;DHT22;14269;47.358;0.724;2022-11-11T09:42:52;12.0;74.0
26641;DHT22;14269;47.358;0.724;2022-11-11T09:45:35;12.0;74.0
26641;DHT22;14269;47.358;0.724;2022-11-11T09:48:25;12.0;74.0
26641;DHT22;14269;47.358;0.724;2022-11-11T09:51:17;12.0;72.0
26641;DHT22;14269;47.358;0.724;2022-11-11T09:54:00;12.0;73.0
26641;DHT22;14269;47.358;0.724;2022-11-11T09:56:37;13.0;72.0
26641;DHT22;14269;47.358;0.724;2022-11-11T09:59:23;13.0;72.0
26641;DHT22;14269;47.358;0.724;2022-11-11T10:02:00;13.0;71.0
26641;DHT22;14269;47.358;0.724;2022-11-11T10:04:47;13.0;71.0
26641;DHT22;14269;47.358;0.724;2022-11-11T10:07:30;13.0;71.0
26641;DHT22;14269;47.358;0.724;2022-11-11T10:10:15;13.0;71.0
26641;DHT22;14269;47.358;0.724;2022-11-11T10:12:51;13.0;70.0
26641;DHT22;14269;47.358;0.724;2022-11-11T10:15:33;13.0;71.0
26641;DHT22;14269;47.358;0.724;2022-11-11T10:18:22;13.0;71.0
26641;DHT22;14269;47.358;0.724;2022-11-11T10:21:07;13.0;71.0
26641;DHT22;14269;47.358;0.724;2022-11-11T10:23:48;13.0;71.0
26641;DHT22;14269;47.358;0.724;2022-11-11T10:26:33;13.0;71.0
26641;DHT22;14269;47.358;0.724;2022-11-11T10:29:13;13.0;71.0
26641;DHT22;14269;47.358;0.724;2022-11-11T10:31:56;13.0;70.0
26641;DHT22;14269;47.358;0.724;2022-11-11T10:34:32;13.0;70.0
26641;DHT22;14269;47.358;0.724;2022-11-11T10:37:17;13.0;70.0
26641;DHT22;14269;47.358;0.724;2022-11-11T10:40:09;13.0;70.0
26641;DHT22;14269;47.358;0.724;2022-11-11T10:42:46;13.0;70.0
26641;DHT22;14269;47.358;0.724;2022-11-11T10:45:22;13.0;69.0
26641;DHT22;14269;47.358;0.724;2022-11-11T10:48:03;13.0;70.0
26641;DHT22;14269;47.358;0.724;2022-11-11T10:50:45;13.0;69.0
26641;DHT22;14269;47.358;0.724;2022-11-11T10:53:29;13.0;69.0
26641;DHT22;14269;47.358;0.724;2022-11-11T10:56:11;14.0;68.0
26641;DHT22;14269;47.358;0.724;2022-11-11T10:58:51;15.0;65.0
26641;DHT22;14269;47.358;0.724;2022-11-11T11:01:32;15.0;63.0
26641;DHT22;14269;47.358;0.724;2022-11-11T11:04:16;15.0;63.0
26641;DHT22;14269;47.358;0.724;2022-11-11T11:06:53;16.0;63.0
26641;DHT22;14269;47.358;0.724;2022-11-11T11:09:39;16.0;62.0
26641;DHT22;14269;47.358;0.724;2022-11-11T11:12:21;15.0;63.0
26641;DHT22;14269;47.358;0.724;2022-11-11T11:15:02;16.0;61.0
26641;DHT22;14269;47.358;0.724;2022-11-11T11:17:44;16.0;60.0
26641;DHT22;14269;47.358;0.724;2022-11-11T11:20:21;17.0;59.0
26641;DHT22;14269;47.358;0.724;2022-11-11T11:22:55;18.0;55.0
26641;DHT22;14269;47.358;0.724;2022-11-11T11:25:34;19.0;52.0
26641;DHT22;14269;47.358;0.724;2022-11-11T11:28:09;19.0;52.0
26641;DHT22;14269;47.358;0.724;2022-11-11T11:30:57;20.0;49.0
26641;DHT22;14269;47.358;0.724;2022-11-11T11:34:00;21.0;47.0
26641;DHT22;14269;47.358;0.724;2022-11-11T11:36:31;19.0;50.0
26641;DHT22;14269;47.358;0.724;2022-11-11T11:39:03;19.0;52.0
26641;DHT22;14269;47.358;0.724;2022-11-11T11:41:36;19.0;53.0
26641;DHT22;14269;47.358;0.724;2022-11-11T11:44:24;19.0;54.0
26641;DHT22;14269;47.358;0.724;2022-11-11T11:47:11;18.0;55.0
26641;DHT22;14269;47.358;0.724;2022-11-11T11:50:12;17.0;57.0
26641;DHT22;14269;47.358;0.724;2022-11-11T11:53:02;17.0;58.0
26641;DHT22;14269;47.358;0.724;2022-11-11T11:55:50;17.0;58.0
26641;DHT22;14269;47.358;0.724;2022-11-11T11:58:36;17.0;58.0
26641;DHT22;14269;47.358;0.724;2022-11-11T12:01:20;18.0;57.0
26641;DHT22;14269;47.358;0.724;2022-11-11T12:05:29;18.0;57.0
26641;DHT22;14269;47.358;0.724;2022-11-11T12:08:26;18.0;57.0
26641;DHT22;14269;47.358;0.724;2022-11-11T12:11:12;18.0;56.0
26641;DHT22;14269;47.358;0.724;2022-11-11T12:13:58;18.0;56.0
26641;DHT22;14269;47.358;0.724;2022-11-11T12:16:42;18.0;56.0
26641;DHT22;14269;47.358;0.724;2022-11-11T12:19:32;18.0;57.0
26641;DHT22;14269;47.358;0.724;2022-11-11T12:22:24;18.0;57.0
26641;DHT22;14269;47.358;0.724;2022-11-11T12:25:12;18.0;56.0
26641;DHT22;14269;47.358;0.724;2022-11-11T12:27:59;20.0;52.0
26641;DHT22;14269;47.358;0.724;2022-11-11T12:30:39;20.0;50.0
26641;DHT22;14269;47.358;0.724;2022-11-11T12:33:37;20.0;52.0
26641;DHT22;14269;47.358;0.724;2022-11-11T12:36:26;20.0;50.0
26641;DHT22;14269;47.358;0.724;2022-11-11T12:39:09;20.0;51.0
26641;DHT22;14269;47.358;0.724;2022-11-11T12:41:54;19.0;52.0
26641;DHT22;14269;47.358;0.724;2022-11-11T12:44:43;19.0;53.0
26641;DHT22;14269;47.358;0.724;2022-11-11T12:47:26;19.0;53.0
26641;DHT22;14269;47.358;0.724;2022-11-11T12:50:17;19.0;53.0
26641;DHT22;14269;47.358;0.724;2022-11-11T12:53:04;19.0;53.0
26641;DHT22;14269;47.358;0.724;2022-11-11T12:55:50;20.0;53.0
26641;DHT22;14269;47.358;0.724;2022-11-11T12:58:30;19.0;53.0
26641;DHT22;14269;47.358;0.724;2022-11-11T13:01:16;19.0;52.0
26641;DHT22;14269;47.358;0.724;2022-11-11T13:03:57;21.0;50.0
26641;DHT22;14269;47.358;0.724;2022-11-11T13:06:52;22.0;47.0
26641;DHT22;14269;47.358;0.724;2022-11-11T13:09:40;22.0;46.0
26641;DHT22;14269;47.358;0.724;2022-11-11T13:12:29;23.0;44.0
26641;DHT22;14269;47.358;0.724;2022-11-11T13:15:13;22.0;45.0
26641;DHT22;14269;47.358;0.724;2022-11-11T13:17:47;21.0;48.0
26641;DHT22;14269;47.358;0.724;2022-11-11T13:20:26;21.0;50.0
26641;DHT22;14269;47.358;0.724;2022-11-11T13:23:11;21.0;49.0
26641;DHT22;14269;47.358;0.724;2022-11-11T13:25:46;21.0;50.0
26641;DHT22;14269;47.358;0.724;2022-11-11T13:28:28;21.0;50.0
26641;DHT22;14269;47.358;0.724;2022-11-11T13:31:14;20.0;51.0
26641;DHT22;14269;47.358;0.724;2022-11-11T13:33:49;21.0;50.0
26641;DHT22;14269;47.358;0.724;2022-11-11T13:36:37;21.0;49.0
26641;DHT22;14269;47.358;0.724;2022-11-11T13:39:23;23.0;46.0
26641;DHT22;14269;47.358;0.724;2022-11-11T13:42:03;23.0;44.0
26641;DHT22;14269;47.358;0.724;2022-11-11T13:44:48;23.0;45.0
26641;DHT22;14269;47.358;0.724;2022-11-11T13:47:33;23.0;45.0
26641;DHT22;14269;47.358;0.724;2022-11-11T13:50:12;24.0;42.0
26641;DHT22;14269;47.358;0.724;2022-11-11T13:52:54;25.0;41.0
26641;DHT22;14269;47.358;0.724;2022-11-11T13:55:35;25.0;40.0
26641;DHT22;14269;47.358;0.724;2022-11-11T13:58:22;26.0;39.0
26641;DHT22;14269;47.358;0.724;2022-11-11T14:00:58;26.0;38.0
26641;DHT22;14269;47.358;0.724;2022-11-11T14:03:58;26.0;38.0
26641;DHT22;14269;47.358;0.724;2022-11-11T14:06:50;27.0;37.0
26641;DHT22;14269;47.358;0.724;2022-11-11T14:10:03;26.0;38.0
26641;DHT22;14269;47.358;0.724;2022-11-11T14:12:44;24.0;42.0
26641;DHT22;14269;47.358;0.724;2022-11-11T14:15:36;23.0;44.0
26641;DHT22;14269;47.358;0.724;2022-11-11T14:18:35;23.0;45.0
26641;DHT22;14269;47.358;0.724;2022-11-11T14:21:09;22.0;47.0
26641;DHT22;14269;47.358;0.724;2022-11-11T14:23:42;22.0;48.0
26641;DHT22;14269;47.358;0.724;2022-11-11T14:26:25;22.0;48.0
26641;DHT22;14269;47.358;0.724;2022-11-11T14:29:04;21.0;50.0
26641;DHT22;14269;47.358;0.724;2022-11-11T14:31:55;21.0;49.0
26641;DHT22;14269;47.358;0.724;2022-11-11T14:35:05;22.0;47.0
26641;DHT22;14269;47.358;0.724;2022-11-11T14:38:02;23.0;45.0
26641;DHT22;14269;47.358;0.724;2022-11-11T14:40:41;24.0;43.0
26641;DHT22;14269;47.358;0.724;2022-11-11T14:43:44;24.0;42.0
26641;DHT22;14269;47.358;0.724;2022-11-11T14:46:25;25.0;41.0
26641;DHT22;14269;47.358;0.724;2022-11-11T14:48:59;25.0;40.0
26641;DHT22;14269;47.358;0.724;2022-11-11T14:51:46;25.0;40.0
26641;DHT22;14269;47.358;0.724;2022-11-11T14:55:15;24.0;41.0
26641;DHT22;14269;47.358;0.724;2022-11-11T14:57:58;22.0;46.0
26641;DHT22;14269;47.358;0.724;2022-11-11T15:00:43;20.0;51.0
26641;DHT22;14269;47.358;0.724;2022-11-11T15:03:23;20.0;52.0
26641;DHT22;14269;47.358;0.724;2022-11-11T15:06:01;19.0;54.0
26641;DHT22;14269;47.358;0.724;2022-11-11T15:08:45;19.0;55.0
26641;DHT22;14269;47.358;0.724;2022-11-11T15:11:29;19.0;57.0
26641;DHT22;14269;47.358;0.724;2022-11-11T15:14:16;18.0;58.0
26641;DHT22;14269;47.358;0.724;2022-11-11T15:17:04;18.0;58.0
26641;DHT22;14269;47.358;0.724;2022-11-11T15:19:54;18.0;59.0
26641;DHT22;14269;47.358;0.724;2022-11-11T15:22:40;18.0;60.0
26641;DHT22;14269;47.358;0.724;2022-11-11T15:25:33;18.0;60.0
26641;DHT22;14269;47.358;0.724;2022-11-11T15:28:25;18.0;61.0
26641;DHT22;14269;47.358;0.724;2022-11-11T15:31:09;17.0;61.0
26641;DHT22;14269;47.358;0.724;2022-11-11T15:33:53;17.0;61.0
26641;DHT22;14269;47.358;0.724;2022-11-11T15:36:43;17.0;62.0
26641;DHT22;14269;47.358;0.724;2022-11-11T15:39:22;17.0;62.0
26641;DHT22;14269;47.358;0.724;2022-11-11T15:42:01;17.0;63.0
26641;DHT22;14269;47.358;0.724;2022-11-11T15:44:34;17.0;63.0
26641;DHT22;14269;47.358;0.724;2022-11-11T15:47:15;17.0;63.0
26641;DHT22;14269;47.358;0.724;2022-11-11T15:49:56;17.0;64.0
26641;DHT22;14269;47.358;0.724;2022-11-11T15:52:30;17.0;64.0
26641;DHT22;14269;47.358;0.724;2022-11-11T15:55:20;17.0;65.0
26641;DHT22;14269;47.358;0.724;2022-11-11T15:57:51;17.0;65.0
26641;DHT22;14269;47.358;0.724;2022-11-11T16:00:27;17.0;65.0
26641;DHT22;14269;47.358;0.724;2022-11-11T16:03:05;17.0;65.0
26641;DHT22;14269;47.358;0.724;2022-11-11T16:05:47;17.0;65.0
26641;DHT22;14269;47.358;0.724;2022-11-11T16:08:19;16.0;66.0
26641;DHT22;14269;47.358;0.724;2022-11-11T16:11:01;16.0;66.0
26641;DHT22;14269;47.358;0.724;2022-11-11T16:13:45;16.0;66.0
26641;DHT22;14269;47.358;0.724;2022-11-11T16:16:26;16.0;67.0
26641;DHT22;14269;47.358;0.724;2022-11-11T16:19:20;16.0;67.0
26641;DHT22;14269;47.358;0.724;2022-11-11T16:22:01;16.0;68.0
26641;DHT22;14269;47.358;0.724;2022-11-11T16:24:40;16.0;68.0
26641;DHT22;14269;47.358;0.724;2022-11-11T16:27:25;16.0;68.0
26641;DHT22;14269;47.358;0.724;2022-11-11T16:30:16;16.0;68.0
26641;DHT22;14269;47.358;0.724;2022-11-11T16:32:56;15.0;69.0
26641;DHT22;14269;47.358;0.724;2022-11-11T16:35:37;15.0;69.0
26641;DHT22;14269;47.358;0.724;2022-11-11T16:38:29;15.0;69.0
26641;DHT22;14269;47.358;0.724;2022-11-11T16:41:27;15.0;69.0
26641;DHT22;14269;47.358;0.724;2022-11-11T16:44:02;15.0;69.0
26641;DHT22;14269;47.358;0.724;2022-11-11T16:46:43;15.0;70.0
26641;DHT22;14269;47.358;0.724;2022-11-11T16:49:27;15.0;71.0
26641;DHT22;14269;47.358;0.724;2022-11-11T16:52:10;15.0;71.0
26641;DHT22;14269;47.358;0.724;2022-11-11T16:54:51;15.0;71.0
26641;DHT22;14269;47.358;0.724;2022-11-11T16:57:31;15.0;70.0
26641;DHT22;14269;47.358;0.724;2022-11-11T17:00:14;15.0;71.0
26641;DHT22;14269;47.358;0.724;2022-11-11T17:03:14;15.0;71.0
26641;DHT22;14269;47.358;0.724;2022-11-11T17:05:57;14.0;71.0
26641;DHT22;14269;47.358;0.724;2022-11-11T17:08:39;14.0;71.0
26641;DHT22;14269;47.358;0.724;2022-11-11T17:11:42;14.0;71.0
26641;DHT22;14269;47.358;0.724;2022-11-11T17:14:21;14.0;71.0
26641;DHT22;14269;47.358;0.724;2022-11-11T17:16:53;14.0;71.0
26641;DHT22;14269;47.358;0.724;2022-11-11T17:19:25;14.0;71.0
26641;DHT22;14269;47.358;0.724;2022-11-11T17:22:05;14.0;71.0
26641;DHT22;14269;47.358;0.724;2022-11-11T17:24:38;14.0;71.0
26641;DHT22;14269;47.358;0.724;2022-11-11T17:27:09;14.0;71.0
26641;DHT22;14269;47.358;0.724;2022-11-11T17:29:41;14.0;71.0
26641;DHT22;14269;47.358;0.724;2022-11-11T17:32:13;14.0;72.0
26641;DHT22;14269;47.358;0.724;2022-11-11T17:34:45;14.0;72.0
26641;DHT22;14269;47.358;0.724;2022-11-11T17:37:16;14.0;72.0
26641;DHT22;14269;47.358;0.724;2022-11-11T17:39:48;14.0;72.0
26641;DHT22;14269;47.358;0.724;2022-11-11T17:42:19;14.0;72.0
26641;DHT22;14269;47.358;0.724;2022-11-11T17:44:51;14.0;73.0
26641;DHT22;14269;47.358;0.724;2022-11-11T17:47:23;14.0;73.0
26641;DHT22;14269;47.358;0.724;2022-11-11T17:49:54;14.0;73.0
26641;DHT22;14269;47.358;0.724;2022-11-11T17:52:26;14.0;73.0
26641;DHT22;14269;47.358;0.724;2022-11-11T17:54:58;14.0;73.0
26641;DHT22;14269;47.358;0.724;2022-11-11T17:57:30;14.0;74.0
26641;DHT22;14269;47.358;0.724;2022-11-11T18:00:12;14.0;74.0
26641;DHT22;14269;47.358;0.724;2022-11-11T18:02:53;14.0;74.0
26641;DHT22;14269;47.358;0.724;2022-11-11T18:05:35;14.0;74.0
26641;DHT22;14269;47.358;0.724;2022-11-11T18:08:06;14.0;73.0
26641;DHT22;14269;47.358;0.724;2022-11-11T18:10:38;14.0;74.0
26641;DHT22;14269;47.358;0.724;2022-11-11T18:13:09;14.0;74.0
26641;DHT22;14269;47.358;0.724;2022-11-11T18:15:41;14.0;74.0